AirNav   Air Wisconsin Up To $57,000 Bonus
 
 944 users online  

C43 Hiram Cure Airport
Sunfield, Michigan, USA

GOING TO SUNFIELD?


FAA INFORMATION EFFECTIVE 11 AUGUST 2022

Location

FAA Identifier: C43
Lat/Long: 42-46-12.1150N 084-57-53.8470W
42-46.201917N 084-57.897450W
42.7700319,-84.9649575
(estimated)
Elevation: 853 ft. / 260 m (estimated)
Variation: 05W (1990)
From city: 2 miles NE of SUNFIELD, MI
Time zone: UTC -4 (UTC -5 during Standard Time)
Zip code: 48890

Airport Operations

Airport use: Open to the public
Activation date: 07/1992
Control tower: no
ARTCC: CLEVELAND CENTER
FSS: LANSING FLIGHT SERVICE STATION
NOTAMs facility: LAN (NOTAM-D service available)
Attendance: IREG
Wind indicator: yes
Segmented circle: no

Airport Communications

CTAF: 122.9
WX AWOS-3 at Y70 (11 nm NW): 118.9 (616-523-1852)
WX AWOS-3 at FPK (14 nm SE): 118.075 (517-543-2288)
WX ASOS at LAN (17 nm E): PHONE 517-908-8494

Nearby radio navigation aids

VOR radial/distance  VOR name  Freq  Var
VIOr096/23.5VICTORY VOR/DME115.9504W

Airport Services

Parking: tiedowns

Runway Information

Runway 9/27

Dimensions: 2314 x 100 ft. / 705 x 30 m
Surface: turf, in good condition
Runway edge markings: 3 FT YELLOW CONES.
Operational restrictions: SOFT WHEN WET.
RUNWAY 9  RUNWAY 27
Traffic pattern: leftleft

Airport Ownership and Management from official FAA records

Ownership: Privately-owned
Owner: KERRY HAYNOR
5630 E EATON HWY
SUNFIELD, MI 48890-9730
Phone 517-256-6395
Manager: KERRY HAYNOR
5630 E EATON HWY
SUNFIELD, MI 48890-9730
Phone 517-256-6395
RESIDES ON ARPT PREMISES.

Airport Operational Statistics

Aircraft based on the field: 3
Single engine airplanes: 3
    
Aircraft operations: avg 26/month *
50% transient general aviation
50% local general aviation
* for 12-month period ending 31 December 2019

Additional Remarks

ARPT CLSD DEC-MAR & WHEN SNOW COVD.
CROPS ADJ TO RWY.
DEER ON & INVOF RWY.
FOR CD CTC GREAT LAKES APCH AT 269-459-3345, WHEN APCH CLSD CTC CLEVELAND ARTCC AT 440-774-0224/0490.

Instrument Procedures

There are no published instrument procedures at C43.

Some nearby airports with instrument procedures:

4D0 - Abrams Municipal Airport (10 nm E)
Y70 - Ionia County Airport (11 nm NW)
KFPK - Fitch H Beach Airport (14 nm SE)
KLAN - Capital Region International Airport (17 nm E)
9D9 - Hastings Airport (18 nm W)
 
Loc | Ops | Rwys | IFR | FBO | Links
Com | Nav | Svcs | Stats | Notes
Area around C43 (Hiram Cure Airport)
 
Road maps at: MapQuest Bing Google
 
Aerial photo
WARNING: Photo may not be current or correct
Aerial photo of C43 (Hiram Cure Airport)
Photo by Ren Wall, Kalamazoo
Taken in 2005

Do you have a better or more recent aerial photo of Hiram Cure Airport that you would like to share? If so, please send us your photo.

 
Sectional chart

 
Airport distance calculator
Flying to Hiram Cure Airport? Find the distance to fly.

From to C43

Sunrise and sunset
Times for 13-Aug-2022
 Local
(UTC-4)
 Zulu
(UTC)
Morning civil twilight06:1410:14
Sunrise06:4510:45
Sunset20:4400:44
Evening civil twilight21:1501:15

Current date and time
Zulu (UTC)  14-Aug-2022 01:50:51
Local (UTC-4)  13-Aug-2022 21:50:51
 
METAR
KY70 
11nm NW 
140135Z AUTO 10007KT 10SM OVC080 13/13 A3009 RMK AO2 T01310131 P0001
KFPK 
14nm SE 
140135Z AUTO 11003KT 10SM OVC110 13/12 A3008 RMK AO2 T01280119
KLAN 
17nm E 
140053Z 12005KT 10SM OVC033 14/12 A3010 RMK AO2 SLP193 T01440122
TAF
KLAN 
17nm E 
132330Z 1400/1424 07005KT P6SM VCSH SCT025 BKN035 FM140200 12006KT P6SM VCSH SCT025 OVC050 TEMPO 1402/1406 3SM -SHRA BR OVC025 FM141100 14007KT 4SM BR VCSH OVC025 FM141300 12006KT 4SM -DZ BR OVC008 FM141600 12008KT P6SM OVC015
NOTAMs
Click for the latest NOTAMs
NOTAMs are issued by the DoD/FAA and will open in a separate window not controlled by AirNav.

 

 
 

Would you like to see your business listed on this page?

 If your business provides an interesting product or service to pilots, flight crews, aircraft, or users of the Hiram Cure Airport, you should consider listing it here.  To start the listing process, click on the button below
 
Add a business
 

Other Pages about Hiram Cure Airport

Page from the Michigan Airport Directory (PDF)
 
Update a link
 
Copyright © AirNav, LLC. All rights reserved. Privacy Policy  Contact